sensor_id;sensor_type;location;lat;lon;timestamp;temperature;humidity
41447;DHT22;27185;52.040;4.490;2023-03-14T00:02:00;13.00;99.90
41447;DHT22;27185;52.040;4.490;2023-03-14T00:04:45;13.00;99.90
41447;DHT22;27185;52.040;4.490;2023-03-14T00:07:32;13.00;99.90
41447;DHT22;27185;52.040;4.490;2023-03-14T00:10:19;13.00;99.90
41447;DHT22;27185;52.040;4.490;2023-03-14T00:13:05;13.00;99.90
41447;DHT22;27185;52.040;4.490;2023-03-14T00:15:51;13.10;99.90
41447;DHT22;27185;52.040;4.490;2023-03-14T00:18:37;13.00;99.90
41447;DHT22;27185;52.040;4.490;2023-03-14T00:21:22;13.10;99.90
41447;DHT22;27185;52.040;4.490;2023-03-14T00:24:08;13.00;99.90
41447;DHT22;27185;52.040;4.490;2023-03-14T00:26:54;13.00;99.90
41447;DHT22;27185;52.040;4.490;2023-03-14T00:29:39;13.00;99.90
41447;DHT22;27185;52.040;4.490;2023-03-14T00:32:25;12.80;99.90
41447;DHT22;27185;52.040;4.490;2023-03-14T00:35:11;12.90;99.90
41447;DHT22;27185;52.040;4.490;2023-03-14T00:37:56;12.80;99.90
41447;DHT22;27185;52.040;4.490;2023-03-14T00:40:42;12.80;99.90
41447;DHT22;27185;52.040;4.490;2023-03-14T00:43:28;12.80;99.90
41447;DHT22;27185;52.040;4.490;2023-03-14T00:46:13;12.80;99.90
41447;DHT22;27185;52.040;4.490;2023-03-14T00:48:59;12.70;99.90
41447;DHT22;27185;52.040;4.490;2023-03-14T00:51:45;12.70;99.90
41447;DHT22;27185;52.040;4.490;2023-03-14T00:54:30;12.70;99.90
41447;DHT22;27185;52.040;4.490;2023-03-14T00:57:16;12.60;99.90
41447;DHT22;27185;52.040;4.490;2023-03-14T01:00:01;12.70;99.90
41447;DHT22;27185;52.040;4.490;2023-03-14T01:02:51;12.70;99.90
41447;DHT22;27185;52.040;4.490;2023-03-14T01:05:37;12.60;99.90
41447;DHT22;27185;52.040;4.490;2023-03-14T01:08:22;12.60;99.90
41447;DHT22;27185;52.040;4.490;2023-03-14T01:11:14;12.70;99.90
41447;DHT22;27185;52.040;4.490;2023-03-14T01:14:01;12.60;99.90
41447;DHT22;27185;52.040;4.490;2023-03-14T01:16:47;12.60;99.90
41447;DHT22;27185;52.040;4.490;2023-03-14T01:19:32;12.60;99.90
41447;DHT22;27185;52.040;4.490;2023-03-14T01:22:18;12.50;99.90
41447;DHT22;27185;52.040;4.490;2023-03-14T01:25:04;12.60;99.90
41447;DHT22;27185;52.040;4.490;2023-03-14T01:27:49;12.60;99.90
41447;DHT22;27185;52.040;4.490;2023-03-14T01:30:35;12.50;99.90
41447;DHT22;27185;52.040;4.490;2023-03-14T01:33:21;12.40;99.90
41447;DHT22;27185;52.040;4.490;2023-03-14T01:36:07;12.40;99.90
41447;DHT22;27185;52.040;4.490;2023-03-14T01:38:53;12.40;99.90
41447;DHT22;27185;52.040;4.490;2023-03-14T01:41:40;12.40;99.90
41447;DHT22;27185;52.040;4.490;2023-03-14T01:44:25;12.40;99.90
41447;DHT22;27185;52.040;4.490;2023-03-14T01:47:11;12.50;99.90
41447;DHT22;27185;52.040;4.490;2023-03-14T01:50:06;12.50;99.90
41447;DHT22;27185;52.040;4.490;2023-03-14T01:52:53;12.60;99.90
41447;DHT22;27185;52.040;4.490;2023-03-14T01:55:39;12.50;99.90
41447;DHT22;27185;52.040;4.490;2023-03-14T01:58:26;12.60;99.90
41447;DHT22;27185;52.040;4.490;2023-03-14T02:01:16;12.50;99.90
41447;DHT22;27185;52.040;4.490;2023-03-14T02:04:04;12.50;99.90
41447;DHT22;27185;52.040;4.490;2023-03-14T02:07:03;12.50;99.90
41447;DHT22;27185;52.040;4.490;2023-03-14T02:09:51;12.50;99.90
41447;DHT22;27185;52.040;4.490;2023-03-14T02:12:38;12.50;99.90
41447;DHT22;27185;52.040;4.490;2023-03-14T02:15:24;12.50;99.90
41447;DHT22;27185;52.040;4.490;2023-03-14T02:18:10;12.50;99.90
41447;DHT22;27185;52.040;4.490;2023-03-14T02:21:12;12.60;99.90
41447;DHT22;27185;52.040;4.490;2023-03-14T02:27:16;12.50;99.90
41447;DHT22;27185;52.040;4.490;2023-03-14T02:30:10;12.60;99.90
41447;DHT22;27185;52.040;4.490;2023-03-14T02:36:03;12.50;99.90
41447;DHT22;27185;52.040;4.490;2023-03-14T02:38:55;12.50;99.90
41447;DHT22;27185;52.040;4.490;2023-03-14T02:41:41;12.50;99.90
41447;DHT22;27185;52.040;4.490;2023-03-14T02:44:27;12.40;99.90
41447;DHT22;27185;52.040;4.490;2023-03-14T02:47:13;12.50;99.90
41447;DHT22;27185;52.040;4.490;2023-03-14T02:50:06;12.50;99.90
41447;DHT22;27185;52.040;4.490;2023-03-14T02:52:53;12.40;99.90
41447;DHT22;27185;52.040;4.490;2023-03-14T02:55:39;12.40;99.90
41447;DHT22;27185;52.040;4.490;2023-03-14T02:58:24;12.40;99.90
41447;DHT22;27185;52.040;4.490;2023-03-14T03:01:10;12.40;99.90
41447;DHT22;27185;52.040;4.490;2023-03-14T03:03:56;12.30;99.90
41447;DHT22;27185;52.040;4.490;2023-03-14T03:06:41;12.30;99.90
41447;DHT22;27185;52.040;4.490;2023-03-14T03:09:27;12.40;99.90
41447;DHT22;27185;52.040;4.490;2023-03-14T03:12:14;12.40;99.90
41447;DHT22;27185;52.040;4.490;2023-03-14T03:15:00;12.40;99.90
41447;DHT22;27185;52.040;4.490;2023-03-14T03:17:45;12.50;99.90
41447;DHT22;27185;52.040;4.490;2023-03-14T03:20:31;12.50;99.90
41447;DHT22;27185;52.040;4.490;2023-03-14T03:23:16;12.50;99.90
41447;DHT22;27185;52.040;4.490;2023-03-14T03:26:02;12.40;99.90
41447;DHT22;27185;52.040;4.490;2023-03-14T03:28:51;12.40;99.90
41447;DHT22;27185;52.040;4.490;2023-03-14T03:31:37;12.50;99.90
41447;DHT22;27185;52.040;4.490;2023-03-14T03:34:23;12.50;99.90
41447;DHT22;27185;52.040;4.490;2023-03-14T03:37:09;12.40;99.90
41447;DHT22;27185;52.040;4.490;2023-03-14T03:39:54;12.50;99.90
41447;DHT22;27185;52.040;4.490;2023-03-14T03:42:40;12.50;99.90
41447;DHT22;27185;52.040;4.490;2023-03-14T03:45:25;12.50;99.90
41447;DHT22;27185;52.040;4.490;2023-03-14T03:48:11;12.50;99.90
41447;DHT22;27185;52.040;4.490;2023-03-14T03:50:57;12.40;99.90
41447;DHT22;27185;52.040;4.490;2023-03-14T03:53:42;12.50;99.90
41447;DHT22;27185;52.040;4.490;2023-03-14T03:56:28;12.60;99.90
41447;DHT22;27185;52.040;4.490;2023-03-14T03:59:14;12.50;99.90
41447;DHT22;27185;52.040;4.490;2023-03-14T04:01:59;12.60;99.90
41447;DHT22;27185;52.040;4.490;2023-03-14T04:04:45;12.50;99.90
41447;DHT22;27185;52.040;4.490;2023-03-14T04:07:34;12.50;99.90
41447;DHT22;27185;52.040;4.490;2023-03-14T04:10:19;12.40;99.90
41447;DHT22;27185;52.040;4.490;2023-03-14T04:13:05;12.40;99.90
41447;DHT22;27185;52.040;4.490;2023-03-14T04:15:51;12.30;99.90
41447;DHT22;27185;52.040;4.490;2023-03-14T04:18:37;12.20;99.90
41447;DHT22;27185;52.040;4.490;2023-03-14T04:21:23;12.10;99.90
41447;DHT22;27185;52.040;4.490;2023-03-14T04:24:09;12.00;99.90
41447;DHT22;27185;52.040;4.490;2023-03-14T04:26:54;11.90;99.90
41447;DHT22;27185;52.040;4.490;2023-03-14T04:29:41;11.80;99.90
41447;DHT22;27185;52.040;4.490;2023-03-14T04:32:26;11.80;99.90
41447;DHT22;27185;52.040;4.490;2023-03-14T04:35:12;11.70;99.90
41447;DHT22;27185;52.040;4.490;2023-03-14T04:37:58;11.70;99.90
41447;DHT22;27185;52.040;4.490;2023-03-14T04:40:44;11.60;99.90
41447;DHT22;27185;52.040;4.490;2023-03-14T04:43:30;11.60;99.90
41447;DHT22;27185;52.040;4.490;2023-03-14T04:46:15;11.50;99.90
41447;DHT22;27185;52.040;4.490;2023-03-14T04:49:01;11.50;99.90
41447;DHT22;27185;52.040;4.490;2023-03-14T04:51:47;11.50;99.90
41447;DHT22;27185;52.040;4.490;2023-03-14T04:54:32;11.50;99.90
41447;DHT22;27185;52.040;4.490;2023-03-14T04:57:18;11.40;99.90
41447;DHT22;27185;52.040;4.490;2023-03-14T05:00:04;11.30;99.90
41447;DHT22;27185;52.040;4.490;2023-03-14T05:02:51;11.30;99.90
41447;DHT22;27185;52.040;4.490;2023-03-14T05:05:37;11.30;99.90
41447;DHT22;27185;52.040;4.490;2023-03-14T05:08:23;11.30;99.90
41447;DHT22;27185;52.040;4.490;2023-03-14T05:11:10;11.30;99.90
41447;DHT22;27185;52.040;4.490;2023-03-14T05:13:56;11.20;99.90
41447;DHT22;27185;52.040;4.490;2023-03-14T05:16:42;11.30;99.90
41447;DHT22;27185;52.040;4.490;2023-03-14T05:19:27;11.30;99.90
41447;DHT22;27185;52.040;4.490;2023-03-14T05:22:13;11.30;99.90
41447;DHT22;27185;52.040;4.490;2023-03-14T05:24:58;11.10;99.90
41447;DHT22;27185;52.040;4.490;2023-03-14T05:27:44;11.10;99.90
41447;DHT22;27185;52.040;4.490;2023-03-14T05:30:29;11.00;99.90
41447;DHT22;27185;52.040;4.490;2023-03-14T05:33:16;11.00;99.90
41447;DHT22;27185;52.040;4.490;2023-03-14T05:36:02;11.00;99.90
41447;DHT22;27185;52.040;4.490;2023-03-14T05:38:47;10.90;99.90
41447;DHT22;27185;52.040;4.490;2023-03-14T05:41:33;10.90;99.90
41447;DHT22;27185;52.040;4.490;2023-03-14T05:44:19;10.80;99.90
41447;DHT22;27185;52.040;4.490;2023-03-14T05:47:04;10.70;99.90
41447;DHT22;27185;52.040;4.490;2023-03-14T05:49:50;10.60;99.90
41447;DHT22;27185;52.040;4.490;2023-03-14T05:52:36;10.50;99.90
41447;DHT22;27185;52.040;4.490;2023-03-14T05:55:22;10.40;99.90
41447;DHT22;27185;52.040;4.490;2023-03-14T05:58:07;10.30;99.90
41447;DHT22;27185;52.040;4.490;2023-03-14T06:00:53;10.20;99.90
41447;DHT22;27185;52.040;4.490;2023-03-14T06:03:41;10.10;99.90
41447;DHT22;27185;52.040;4.490;2023-03-14T06:06:27;10.10;99.90
41447;DHT22;27185;52.040;4.490;2023-03-14T06:09:13;10.10;99.90
41447;DHT22;27185;52.040;4.490;2023-03-14T06:11:58;10.00;99.90
41447;DHT22;27185;52.040;4.490;2023-03-14T06:14:44;10.00;99.90
41447;DHT22;27185;52.040;4.490;2023-03-14T06:17:29;9.90;99.90
41447;DHT22;27185;52.040;4.490;2023-03-14T06:20:15;9.90;99.90
41447;DHT22;27185;52.040;4.490;2023-03-14T06:23:01;9.90;99.90
41447;DHT22;27185;52.040;4.490;2023-03-14T06:25:46;9.80;99.90
41447;DHT22;27185;52.040;4.490;2023-03-14T06:28:32;9.80;99.90
41447;DHT22;27185;52.040;4.490;2023-03-14T06:31:18;9.80;99.90
41447;DHT22;27185;52.040;4.490;2023-03-14T06:34:03;9.70;99.90
41447;DHT22;27185;52.040;4.490;2023-03-14T06:36:49;9.70;99.90
41447;DHT22;27185;52.040;4.490;2023-03-14T06:39:35;9.60;99.90
41447;DHT22;27185;52.040;4.490;2023-03-14T06:42:20;9.60;99.90
41447;DHT22;27185;52.040;4.490;2023-03-14T06:45:07;9.60;99.90
41447;DHT22;27185;52.040;4.490;2023-03-14T06:47:52;9.60;99.90
41447;DHT22;27185;52.040;4.490;2023-03-14T06:50:38;9.60;99.90
41447;DHT22;27185;52.040;4.490;2023-03-14T06:53:24;9.50;99.90
41447;DHT22;27185;52.040;4.490;2023-03-14T06:56:09;9.50;99.90
41447;DHT22;27185;52.040;4.490;2023-03-14T06:58:55;9.50;99.90
41447;DHT22;27185;52.040;4.490;2023-03-14T07:01:41;9.50;99.90
41447;DHT22;27185;52.040;4.490;2023-03-14T07:04:26;9.50;99.90
41447;DHT22;27185;52.040;4.490;2023-03-14T07:07:12;9.50;99.90
41447;DHT22;27185;52.040;4.490;2023-03-14T07:09:58;9.50;99.90
41447;DHT22;27185;52.040;4.490;2023-03-14T07:12:43;9.50;99.90
41447;DHT22;27185;52.040;4.490;2023-03-14T07:15:29;9.50;99.90
41447;DHT22;27185;52.040;4.490;2023-03-14T07:18:14;9.50;99.90
41447;DHT22;27185;52.040;4.490;2023-03-14T07:21:00;9.50;99.90
41447;DHT22;27185;52.040;4.490;2023-03-14T07:23:46;9.50;99.90
41447;DHT22;27185;52.040;4.490;2023-03-14T07:26:31;9.50;99.90
41447;DHT22;27185;52.040;4.490;2023-03-14T07:29:17;9.50;99.90
41447;DHT22;27185;52.040;4.490;2023-03-14T07:32:04;9.40;99.90
41447;DHT22;27185;52.040;4.490;2023-03-14T07:34:50;9.50;99.90
41447;DHT22;27185;52.040;4.490;2023-03-14T07:37:36;9.40;99.90
41447;DHT22;27185;52.040;4.490;2023-03-14T07:40:21;9.40;99.90
41447;DHT22;27185;52.040;4.490;2023-03-14T07:43:07;9.40;99.90
41447;DHT22;27185;52.040;4.490;2023-03-14T07:45:53;9.40;99.90
41447;DHT22;27185;52.040;4.490;2023-03-14T07:48:39;9.40;99.90
41447;DHT22;27185;52.040;4.490;2023-03-14T07:51:25;9.30;99.90
41447;DHT22;27185;52.040;4.490;2023-03-14T07:54:11;9.10;99.90
41447;DHT22;27185;52.040;4.490;2023-03-14T07:56:56;9.00;99.90
41447;DHT22;27185;52.040;4.490;2023-03-14T07:59:45;8.90;99.90
41447;DHT22;27185;52.040;4.490;2023-03-14T08:02:31;8.90;99.90
41447;DHT22;27185;52.040;4.490;2023-03-14T08:05:17;8.80;99.90
41447;DHT22;27185;52.040;4.490;2023-03-14T08:08:03;8.70;99.90
41447;DHT22;27185;52.040;4.490;2023-03-14T08:10:49;8.60;99.90
41447;DHT22;27185;52.040;4.490;2023-03-14T08:13:36;8.50;99.90
41447;DHT22;27185;52.040;4.490;2023-03-14T08:16:21;8.60;99.90
41447;DHT22;27185;52.040;4.490;2023-03-14T08:19:07;8.50;99.90
41447;DHT22;27185;52.040;4.490;2023-03-14T08:21:53;8.50;99.90
41447;DHT22;27185;52.040;4.490;2023-03-14T08:24:39;8.50;99.90
41447;DHT22;27185;52.040;4.490;2023-03-14T08:27:26;8.50;99.90
41447;DHT22;27185;52.040;4.490;2023-03-14T08:30:14;8.50;99.90
41447;DHT22;27185;52.040;4.490;2023-03-14T08:33:00;8.50;99.90
41447;DHT22;27185;52.040;4.490;2023-03-14T08:35:45;8.50;99.90
41447;DHT22;27185;52.040;4.490;2023-03-14T08:38:31;8.40;99.90
41447;DHT22;27185;52.040;4.490;2023-03-14T08:41:17;8.20;99.90
41447;DHT22;27185;52.040;4.490;2023-03-14T08:44:02;8.10;99.90
41447;DHT22;27185;52.040;4.490;2023-03-14T08:46:48;8.10;99.90
41447;DHT22;27185;52.040;4.490;2023-03-14T08:49:33;8.00;99.90
41447;DHT22;27185;52.040;4.490;2023-03-14T08:52:19;8.00;99.90
41447;DHT22;27185;52.040;4.490;2023-03-14T08:55:05;8.10;99.90
41447;DHT22;27185;52.040;4.490;2023-03-14T08:57:51;8.10;99.90
41447;DHT22;27185;52.040;4.490;2023-03-14T09:00:37;8.20;99.90
41447;DHT22;27185;52.040;4.490;2023-03-14T09:03:24;8.30;99.90
41447;DHT22;27185;52.040;4.490;2023-03-14T09:06:10;8.40;99.90
41447;DHT22;27185;52.040;4.490;2023-03-14T09:08:56;8.50;99.90
41447;DHT22;27185;52.040;4.490;2023-03-14T09:11:41;8.60;99.90
41447;DHT22;27185;52.040;4.490;2023-03-14T09:14:27;8.60;99.90
41447;DHT22;27185;52.040;4.490;2023-03-14T09:17:13;8.70;99.90
41447;DHT22;27185;52.040;4.490;2023-03-14T09:19:58;8.80;99.90
41447;DHT22;27185;52.040;4.490;2023-03-14T09:22:44;8.90;99.90
41447;DHT22;27185;52.040;4.490;2023-03-14T09:25:29;8.90;99.90
41447;DHT22;27185;52.040;4.490;2023-03-14T09:28:15;8.90;99.90
41447;DHT22;27185;52.040;4.490;2023-03-14T09:31:08;9.00;99.90
41447;DHT22;27185;52.040;4.490;2023-03-14T09:33:54;8.90;99.90
41447;DHT22;27185;52.040;4.490;2023-03-14T09:36:40;8.90;99.90
41447;DHT22;27185;52.040;4.490;2023-03-14T09:39:26;8.80;99.90
41447;DHT22;27185;52.040;4.490;2023-03-14T09:42:15;8.70;99.90
41447;DHT22;27185;52.040;4.490;2023-03-14T09:45:04;8.60;99.90
41447;DHT22;27185;52.040;4.490;2023-03-14T09:47:54;8.50;99.90
41447;DHT22;27185;52.040;4.490;2023-03-14T09:50:44;8.40;99.90
41447;DHT22;27185;52.040;4.490;2023-03-14T09:53:37;8.30;99.90
41447;DHT22;27185;52.040;4.490;2023-03-14T09:56:31;8.30;99.90
41447;DHT22;27185;52.040;4.490;2023-03-14T09:59:17;8.30;99.90
41447;DHT22;27185;52.040;4.490;2023-03-14T10:02:19;8.40;99.90
41447;DHT22;27185;52.040;4.490;2023-03-14T10:05:14;8.50;99.90
41447;DHT22;27185;52.040;4.490;2023-03-14T10:08:00;8.50;99.90
41447;DHT22;27185;52.040;4.490;2023-03-14T10:10:45;8.60;99.90
41447;DHT22;27185;52.040;4.490;2023-03-14T10:13:31;8.70;99.90
41447;DHT22;27185;52.040;4.490;2023-03-14T10:16:17;8.60;99.90
41447;DHT22;27185;52.040;4.490;2023-03-14T10:19:10;8.60;99.90
41447;DHT22;27185;52.040;4.490;2023-03-14T10:21:55;8.60;99.90
41447;DHT22;27185;52.040;4.490;2023-03-14T10:24:46;8.60;99.90
41447;DHT22;27185;52.040;4.490;2023-03-14T10:27:35;8.60;99.90
41447;DHT22;27185;52.040;4.490;2023-03-14T10:31:06;8.70;99.90
41447;DHT22;27185;52.040;4.490;2023-03-14T10:34:12;8.70;99.90
41447;DHT22;27185;52.040;4.490;2023-03-14T10:37:22;8.80;99.90
41447;DHT22;27185;52.040;4.490;2023-03-14T10:40:13;8.90;99.90
41447;DHT22;27185;52.040;4.490;2023-03-14T10:43:00;9.00;99.90
41447;DHT22;27185;52.040;4.490;2023-03-14T10:45:52;9.10;99.90
41447;DHT22;27185;52.040;4.490;2023-03-14T10:48:43;9.20;99.90
41447;DHT22;27185;52.040;4.490;2023-03-14T10:51:30;9.30;99.90
41447;DHT22;27185;52.040;4.490;2023-03-14T10:54:21;9.30;99.90
41447;DHT22;27185;52.040;4.490;2023-03-14T10:57:11;9.40;99.90
41447;DHT22;27185;52.040;4.490;2023-03-14T10:59:57;9.50;99.90
41447;DHT22;27185;52.040;4.490;2023-03-14T11:05:49;9.70;99.90
41447;DHT22;27185;52.040;4.490;2023-03-14T11:09:11;9.80;99.90
41447;DHT22;27185;52.040;4.490;2023-03-14T11:21:26;9.80;99.90
41447;DHT22;27185;52.040;4.490;2023-03-14T11:24:34;9.80;99.90
41447;DHT22;27185;52.040;4.490;2023-03-14T11:30:35;9.90;99.90
41447;DHT22;27185;52.040;4.490;2023-03-14T11:33:28;10.10;99.90
41447;DHT22;27185;52.040;4.490;2023-03-14T11:36:25;10.60;99.90
41447;DHT22;27185;52.040;4.490;2023-03-14T11:39:18;11.00;99.90
41447;DHT22;27185;52.040;4.490;2023-03-14T11:42:03;11.20;99.90
41447;DHT22;27185;52.040;4.490;2023-03-14T11:44:49;11.30;99.90
41447;DHT22;27185;52.040;4.490;2023-03-14T11:47:39;11.40;99.90
41447;DHT22;27185;52.040;4.490;2023-03-14T11:50:27;11.40;99.90
41447;DHT22;27185;52.040;4.490;2023-03-14T11:56:25;11.60;99.90
41447;DHT22;27185;52.040;4.490;2023-03-14T11:59:17;11.80;97.30
41447;DHT22;27185;52.040;4.490;2023-03-14T12:02:13;12.00;99.60
41447;DHT22;27185;52.040;4.490;2023-03-14T12:11:31;11.90;97.60
41447;DHT22;27185;52.040;4.490;2023-03-14T12:14:26;11.80;96.20
41447;DHT22;27185;52.040;4.490;2023-03-14T12:17:27;11.70;95.00
41447;DHT22;27185;52.040;4.490;2023-03-14T12:20:20;11.60;97.00
41447;DHT22;27185;52.040;4.490;2023-03-14T12:23:11;11.50;97.50
41447;DHT22;27185;52.040;4.490;2023-03-14T12:26:21;11.40;94.50
41447;DHT22;27185;52.040;4.490;2023-03-14T12:29:15;11.50;93.00
41447;DHT22;27185;52.040;4.490;2023-03-14T12:34:47;11.40;98.40
41447;DHT22;27185;52.040;4.490;2023-03-14T12:37:46;11.50;98.80
41447;DHT22;27185;52.040;4.490;2023-03-14T12:40:37;11.60;94.00
41447;DHT22;27185;52.040;4.490;2023-03-14T12:43:33;11.80;97.50
41447;DHT22;27185;52.040;4.490;2023-03-14T12:46:27;12.10;95.80
41447;DHT22;27185;52.040;4.490;2023-03-14T12:49:12;12.40;95.50
41447;DHT22;27185;52.040;4.490;2023-03-14T12:51:59;12.60;96.60
41447;DHT22;27185;52.040;4.490;2023-03-14T12:55:12;12.60;94.60
41447;DHT22;27185;52.040;4.490;2023-03-14T12:58:15;12.80;85.40
41447;DHT22;27185;52.040;4.490;2023-03-14T13:01:05;12.80;88.90
41447;DHT22;27185;52.040;4.490;2023-03-14T13:03:57;12.90;87.40
41447;DHT22;27185;52.040;4.490;2023-03-14T13:07:03;13.00;89.30
41447;DHT22;27185;52.040;4.490;2023-03-14T13:09:53;13.00;87.70
41447;DHT22;27185;52.040;4.490;2023-03-14T13:15:49;13.10;86.20
41447;DHT22;27185;52.040;4.490;2023-03-14T13:18:39;13.10;88.50
41447;DHT22;27185;52.040;4.490;2023-03-14T13:21:27;13.00;88.60
41447;DHT22;27185;52.040;4.490;2023-03-14T13:24:24;12.90;84.40
41447;DHT22;27185;52.040;4.490;2023-03-14T13:27:17;12.70;85.40
41447;DHT22;27185;52.040;4.490;2023-03-14T13:30:12;12.60;80.60
41447;DHT22;27185;52.040;4.490;2023-03-14T13:33:03;12.40;87.20
41447;DHT22;27185;52.040;4.490;2023-03-14T13:35:56;12.30;85.80
41447;DHT22;27185;52.040;4.490;2023-03-14T13:38:42;12.20;86.10
41447;DHT22;27185;52.040;4.490;2023-03-14T13:41:28;12.10;88.00
41447;DHT22;27185;52.040;4.490;2023-03-14T13:44:16;11.90;89.30
41447;DHT22;27185;52.040;4.490;2023-03-14T13:47:05;11.80;88.30
41447;DHT22;27185;52.040;4.490;2023-03-14T13:49:52;11.60;88.80
41447;DHT22;27185;52.040;4.490;2023-03-14T13:52:38;11.40;87.80
41447;DHT22;27185;52.040;4.490;2023-03-14T13:55:24;11.20;90.30
41447;DHT22;27185;52.040;4.490;2023-03-14T13:58:19;11.10;90.30
41447;DHT22;27185;52.040;4.490;2023-03-14T14:01:20;11.00;86.70
41447;DHT22;27185;52.040;4.490;2023-03-14T14:04:14;10.80;90.80
41447;DHT22;27185;52.040;4.490;2023-03-14T14:07:00;10.70;88.80
41447;DHT22;27185;52.040;4.490;2023-03-14T14:09:49;10.60;91.40
41447;DHT22;27185;52.040;4.490;2023-03-14T14:12:40;10.60;90.80
41447;DHT22;27185;52.040;4.490;2023-03-14T14:15:30;10.50;90.70
41447;DHT22;27185;52.040;4.490;2023-03-14T14:18:19;10.50;91.10
41447;DHT22;27185;52.040;4.490;2023-03-14T14:21:06;10.40;91.50
41447;DHT22;27185;52.040;4.490;2023-03-14T14:23:54;10.40;91.90
41447;DHT22;27185;52.040;4.490;2023-03-14T14:26:50;10.30;92.20
41447;DHT22;27185;52.040;4.490;2023-03-14T14:29:37;10.20;92.70
41447;DHT22;27185;52.040;4.490;2023-03-14T14:32:22;10.20;93.30
41447;DHT22;27185;52.040;4.490;2023-03-14T14:35:10;10.30;93.50
41447;DHT22;27185;52.040;4.490;2023-03-14T14:37:56;10.30;91.10
41447;DHT22;27185;52.040;4.490;2023-03-14T14:40:47;10.30;93.10
41447;DHT22;27185;52.040;4.490;2023-03-14T14:43:36;10.30;92.40
41447;DHT22;27185;52.040;4.490;2023-03-14T14:46:27;10.40;92.60
41447;DHT22;27185;52.040;4.490;2023-03-14T14:49:17;10.40;92.50
41447;DHT22;27185;52.040;4.490;2023-03-14T14:52:10;10.50;92.50
41447;DHT22;27185;52.040;4.490;2023-03-14T14:54:59;10.50;91.70
41447;DHT22;27185;52.040;4.490;2023-03-14T14:57:51;10.60;93.10
41447;DHT22;27185;52.040;4.490;2023-03-14T15:00:39;10.70;91.10
41447;DHT22;27185;52.040;4.490;2023-03-14T15:03:28;10.80;90.90
41447;DHT22;27185;52.040;4.490;2023-03-14T15:06:16;10.80;92.10
41447;DHT22;27185;52.040;4.490;2023-03-14T15:09:02;10.80;91.80
41447;DHT22;27185;52.040;4.490;2023-03-14T15:11:48;10.80;92.30
41447;DHT22;27185;52.040;4.490;2023-03-14T15:14:34;10.70;89.60
41447;DHT22;27185;52.040;4.490;2023-03-14T15:17:19;10.70;90.90
41447;DHT22;27185;52.040;4.490;2023-03-14T15:20:10;10.70;87.20
41447;DHT22;27185;52.040;4.490;2023-03-14T15:22:58;10.70;88.40
41447;DHT22;27185;52.040;4.490;2023-03-14T15:25:44;10.70;83.90
41447;DHT22;27185;52.040;4.490;2023-03-14T15:28:34;10.80;88.40
41447;DHT22;27185;52.040;4.490;2023-03-14T15:31:20;10.80;88.30
41447;DHT22;27185;52.040;4.490;2023-03-14T15:34:09;10.80;88.30
41447;DHT22;27185;52.040;4.490;2023-03-14T15:36:55;10.70;87.60
41447;DHT22;27185;52.040;4.490;2023-03-14T15:39:44;10.70;90.20
41447;DHT22;27185;52.040;4.490;2023-03-14T15:42:30;10.70;89.00
41447;DHT22;27185;52.040;4.490;2023-03-14T15:45:15;10.80;89.70
41447;DHT22;27185;52.040;4.490;2023-03-14T15:48:01;10.80;89.50
41447;DHT22;27185;52.040;4.490;2023-03-14T15:50:47;10.90;89.70
41447;DHT22;27185;52.040;4.490;2023-03-14T15:53:32;10.90;83.60
41447;DHT22;27185;52.040;4.490;2023-03-14T15:56:20;10.90;87.60
41447;DHT22;27185;52.040;4.490;2023-03-14T15:59:09;10.70;86.80
41447;DHT22;27185;52.040;4.490;2023-03-14T16:01:54;10.60;89.80
41447;DHT22;27185;52.040;4.490;2023-03-14T16:04:40;10.50;90.90
41447;DHT22;27185;52.040;4.490;2023-03-14T16:07:26;10.40;91.00
41447;DHT22;27185;52.040;4.490;2023-03-14T16:10:13;10.30;92.10
41447;DHT22;27185;52.040;4.490;2023-03-14T16:13:00;10.20;91.20
41447;DHT22;27185;52.040;4.490;2023-03-14T16:15:57;10.20;92.70
41447;DHT22;27185;52.040;4.490;2023-03-14T16:18:43;10.10;88.50
41447;DHT22;27185;52.040;4.490;2023-03-14T16:21:28;10.00;90.70
41447;DHT22;27185;52.040;4.490;2023-03-14T16:24:14;9.90;92.10
41447;DHT22;27185;52.040;4.490;2023-03-14T16:27:00;9.90;92.00
41447;DHT22;27185;52.040;4.490;2023-03-14T16:29:45;10.00;93.60
41447;DHT22;27185;52.040;4.490;2023-03-14T16:32:32;10.10;93.30
41447;DHT22;27185;52.040;4.490;2023-03-14T16:35:18;10.10;93.60
41447;DHT22;27185;52.040;4.490;2023-03-14T16:38:04;10.10;93.70
41447;DHT22;27185;52.040;4.490;2023-03-14T16:41:04;10.20;93.30
41447;DHT22;27185;52.040;4.490;2023-03-14T16:43:50;10.30;92.40
41447;DHT22;27185;52.040;4.490;2023-03-14T16:46:38;10.30;93.80
41447;DHT22;27185;52.040;4.490;2023-03-14T16:49:24;10.40;92.50
41447;DHT22;27185;52.040;4.490;2023-03-14T16:52:09;10.30;91.00
41447;DHT22;27185;52.040;4.490;2023-03-14T16:54:55;10.30;92.90
41447;DHT22;27185;52.040;4.490;2023-03-14T16:57:40;10.20;92.20
41447;DHT22;27185;52.040;4.490;2023-03-14T17:00:26;10.10;91.90
41447;DHT22;27185;52.040;4.490;2023-03-14T17:03:12;10.00;91.90
41447;DHT22;27185;52.040;4.490;2023-03-14T17:05:58;9.80;92.30
41447;DHT22;27185;52.040;4.490;2023-03-14T17:08:43;9.70;93.00
41447;DHT22;27185;52.040;4.490;2023-03-14T17:11:30;9.60;91.30
41447;DHT22;27185;52.040;4.490;2023-03-14T17:14:17;9.50;91.70
41447;DHT22;27185;52.040;4.490;2023-03-14T17:17:03;9.40;92.00
41447;DHT22;27185;52.040;4.490;2023-03-14T17:19:48;9.30;91.90
41447;DHT22;27185;52.040;4.490;2023-03-14T17:22:34;9.20;91.20
41447;DHT22;27185;52.040;4.490;2023-03-14T17:25:20;9.10;92.50
41447;DHT22;27185;52.040;4.490;2023-03-14T17:28:05;9.00;91.90
41447;DHT22;27185;52.040;4.490;2023-03-14T17:31:04;8.90;92.80
41447;DHT22;27185;52.040;4.490;2023-03-14T17:33:50;8.80;90.80
41447;DHT22;27185;52.040;4.490;2023-03-14T17:36:36;8.80;92.00
41447;DHT22;27185;52.040;4.490;2023-03-14T17:39:22;8.70;93.40
41447;DHT22;27185;52.040;4.490;2023-03-14T17:42:08;8.60;93.50
41447;DHT22;27185;52.040;4.490;2023-03-14T17:44:53;8.50;93.40
41447;DHT22;27185;52.040;4.490;2023-03-14T17:47:40;8.40;93.50
41447;DHT22;27185;52.040;4.490;2023-03-14T17:50:26;8.40;93.30
41447;DHT22;27185;52.040;4.490;2023-03-14T17:53:11;8.30;93.40
41447;DHT22;27185;52.040;4.490;2023-03-14T17:55:57;8.30;94.20
41447;DHT22;27185;52.040;4.490;2023-03-14T17:58:43;8.20;94.00
41447;DHT22;27185;52.040;4.490;2023-03-14T18:01:29;8.10;94.40
41447;DHT22;27185;52.040;4.490;2023-03-14T18:04:15;8.10;95.00
41447;DHT22;27185;52.040;4.490;2023-03-14T18:07:01;8.00;95.50
41447;DHT22;27185;52.040;4.490;2023-03-14T18:09:47;8.00;95.60
41447;DHT22;27185;52.040;4.490;2023-03-14T18:12:32;7.90;96.00
41447;DHT22;27185;52.040;4.490;2023-03-14T18:15:18;7.90;96.00
41447;DHT22;27185;52.040;4.490;2023-03-14T18:18:04;7.80;96.50
41447;DHT22;27185;52.040;4.490;2023-03-14T18:20:51;7.80;96.30
41447;DHT22;27185;52.040;4.490;2023-03-14T18:23:38;7.70;96.80
41447;DHT22;27185;52.040;4.490;2023-03-14T18:26:23;7.70;97.30